Home > Products > Valid Products > TAF

000
FTUS43 KIND 091120
TAFLAF
TAF
KLAF 091120Z 0912/1012 28011KT 6SM -SHSN OVC012
     FM091400 29014G20KT 6SM BR VCSH OVC015
      TEMPO 0918/0922 2SM -SHSN OVC008
     FM100000 29012G20KT P6SM VCSH SCT012 OVC020
      AMD LTD TO CLD VIS AND WIND TIL 091400=



000
FTUS43 KIND 091120
TAFIND
TAF
KIND 091120Z 0912/1018 28011KT 6SM -SHSN OVC010
      TEMPO 0912/0914 2SM -SN OVC009
     FM091400 29014G20KT 6SM BR VCSH OVC015
      TEMPO 0918/0922 2SM -SHSN OVC008
     FM100000 29012G20KT P6SM VCSH SCT012 OVC020
     FM101200 29012G20KT P6SM OVC025=



000
FTUS43 KIND 090820 AAA
TAFIND
TAF AMD
KIND 090820Z 0908/1012 28011KT 6SM -SHSN BKN010 OVC025
     FM091400 28014G22KT 3SM -SHSN BR SCT012 OVC018
     FM100100 29012G20KT 5SM -SHSN SCT012 OVC020
     FM100800 29012G20KT 6SM -SHSN BKN025 OVC040=



000
FTUS43 KIND 090520
TAFIND
TAF
KIND 090520Z 0906/1012 28011KT 6SM -SHSN BKN025 OVC040
     FM091400 28014G22KT 3SM -SHSN BR SCT012 OVC018
     FM100100 29012G20KT 5SM -SHSN SCT012 OVC020
     FM100800 29012G20KT 6SM -SHSN BKN025 OVC040=



000
FTUS43 KIND 090520
TAFLAF
TAF
KLAF 090520Z 0906/1006 28011KT 6SM -SHSN BKN022 OVC040
     FM091000 29012KT 3SM -SHSN BR OVC015
     FM091500 30013G23KT 3SM -SHSN OVC015
     FM100200 30012KT 5SM -SHSN SCT015 OVC022
      AMD LTD TO CLD VIS AND WIND TIL 091400=



000
FTUS43 KIND 090520
TAFIND
TAF
KIND 090520Z 0906/1012 28011KT 6SM -SHSN BKN025 OVC040
     FM091400 28014G22KT 3SM -SHSN BR SCT012 OVC018
     FM100100 29012G20KT 5SM -SHSN SCT012 OVC020
     FM100800 29012G20KT 6SM -SHSN BKN025 OVC040=



000
FTUS43 KIND 090520
TAFLAF
TAF
KLAF 090520Z 0906/1006 28011KT 6SM -SHSN BKN022 OVC040
     FM091000 29012KT 3SM -SHSN BR OVC015
     FM091500 30013G23KT 3SM -SHSN OVC015
     FM100200 30012KT 5SM -SHSN SCT015 OVC022
      AMD LTD TO CLD VIS AND WIND TIL 091400=



000
FTUS43 KIND 090409 AAC
TAFIND
TAF AMD
KIND 090409Z 0904/1006 28011KT 6SM -SHSN BKN025 OVC050
     FM091400 28012G20KT 3SM -SHSN BR OVC015
     FM100000 29013G20KT 5SM -SHSN SCT012 OVC020=



000
FTUS43 KIND 090409 AAC
TAFIND
TAF AMD
KIND 090409Z 0904/1006 28011KT 6SM -SHSN BKN025 OVC050
     FM091400 28012G20KT 3SM -SHSN BR OVC015
     FM100000 29013G20KT 5SM -SHSN SCT012 OVC020=



000
FTUS43 KIND 090223 AAB
TAFIND
TAF AMD
KIND 090223Z 0902/1006 30016G25KT 6SM -SHSN BKN025 OVC050
      TEMPO 0902/0905 5SM -SHSN BR
     FM090500 28012G19KT 6SM -SHSN SCT012 OVC020
     FM091000 28014G22KT 3SM -SHSN BR OVC015
     FM100000 29013G20KT 5SM -SHSN SCT012 OVC020=



000
FTUS43 KIND 082325
TAFIND
TAF
KIND 082325Z 0900/1006 30016G25KT 4SM -SHSN SCT012 OVC020
      TEMPO 0900/0904 2SM -SHSN BR
     FM090400 28012G19KT 5SM -SHSN SCT012 OVC020
     FM091000 28014G22KT 3SM -SHSN BR OVC015
     FM100000 29013G20KT 5SM -SHSN SCT012 OVC020=



000
FTUS43 KIND 082325
TAFLAF
TAF
KLAF 082325Z 0900/0924 29012G18KT P6SM VCSH SCT015 OVC025
      TEMPO 0900/0903 3SM -SHSN
     FM090800 30012G22KT 3SM -SHSN BR OVC015
      AMD LTD TO CLD VIS AND WIND 0902/0914=



000
FTUS43 KIND 082207 AAC
TAFIND
TAF AMD
KIND 082207Z 0822/0924 30016G25KT 3SM -SHSN OVC012
      TEMPO 0822/0824 1 1/2SM -SHSN BR
     FM090000 28012G19KT P6SM VCSH SCT015 OVC025
     FM090900 28014G22KT 3SM -SHSN BR OVC015=



000
FTUS43 KIND 082011 AAB
TAFIND
TAF AMD
KIND 082011Z 0820/0924 30016G25KT 3SM -SHSN OVC012
      TEMPO 0820/0822 1 1/2SM -SHSN BR
     FM090000 28012G19KT P6SM VCSH SCT015 OVC025
     FM090900 28014G22KT 3SM -SHSN BR OVC015=



000
FTUS43 KIND 081720
TAFLAF
TAF
KLAF 081720Z 0818/0918 31013G22KT 5SM -SHSN BKN015
     FM082200 30012G18KT P6SM VCSH SCT015 OVC025
     FM090800 30012G22KT 3SM -SHSN BR OVC015=



000
FTUS43 KIND 081720
TAFIND
TAF
KIND 081720Z 0818/0924 30016G25KT 3SM -SHSN SCT009 OVC015
      TEMPO 0818/0822 1 1/2SM -SHSN BR
     FM090000 28012G19KT P6SM VCSH SCT015 OVC025
     FM090900 28014G22KT 3SM -SHSN BR OVC015=



000
FTUS43 KIND 081421 AAC
TAFIND
TAF AMD
KIND 081421Z 0814/0918 27007KT P6SM VCSH BKN008 OVC020
     FM081530 28011G18KT 5SM -SHSN SCT009 OVC015
     FM081900 29013G22KT 3SM -SHSN SCT006 OVC015
      TEMPO 0819/0822 1 1/2SM -SHSN BR BKN006
     FM090000 28012KT P6SM VCSH SCT015 OVC025=



000
FTUS43 KIND 081421 AAC
TAFIND
TAF AMD
KIND 081421Z 0814/0918 27007KT P6SM VCSH BKN008 OVC020
     FM081530 28011G18KT 5SM -SHSN SCT009 OVC015
     FM081900 29013G22KT 3SM -SHSN SCT006 OVC015
      TEMPO 0819/0822 1 1/2SM -SHSN BR BKN006
     FM090000 28012KT P6SM VCSH SCT015 OVC025=



000
FTUS43 KIND 081303 AAB
TAFIND
TAF AMD
KIND 081303Z 0813/0918 26007KT P6SM VCSH SCT006 OVC020
      TEMPO 0813/0814 BKN006
     FM081500 28011G18KT 5SM -SHSN OVC015
     FM081900 29013G22KT 3SM -SHSN SCT006 OVC015
     FM090000 28012KT P6SM VCSH SCT015 OVC025=



000
FTUS43 KIND 081303 AAB
TAFIND
TAF AMD
KIND 081303Z 0813/0918 26007KT P6SM VCSH SCT006 OVC020
      TEMPO 0813/0814 BKN006
     FM081500 28011G18KT 5SM -SHSN OVC015
     FM081900 29013G22KT 3SM -SHSN SCT006 OVC015
     FM090000 28012KT P6SM VCSH SCT015 OVC025=



000
FTUS43 KIND 081124
TAFIND
TAF
KIND 081124Z 0812/0918 26007KT P6SM VCSH SCT015 OVC030
     FM081500 28011G18KT 5SM -SHSN OVC015
     FM081900 29013G22KT 3SM -SHSN SCT006 OVC015
     FM090000 28012KT P6SM VCSH SCT015 OVC025=



000
FTUS43 KIND 081124
TAFLAF
TAF
KLAF 081124Z 0812/0912 26006KT P6SM SCT015 OVC030
     FM081400 28010KT 6SM -SHSN SCT008 OVC015
     FM081700 30013G22KT 5SM -SHSN SCT015 OVC025
     FM082100 30012KT P6SM VCSH SCT015 OVC025
      AMD LTD TO CLD VIS AND WIND TIL 081400=



000
FTUS43 KIND 080811 AAB
TAFIND
TAF AMD
KIND 080811Z 0808/0912 26008KT P6SM SCT020 BKN050
      TEMPO 0809/0811 -RASN SCT012 OVC020
     FM081200 26007KT P6SM SCT025 OVC040
     FM081500 28011G18KT 3SM -SHSN OVC020
     FM081900 29013G22KT 5SM -SHSN OVC025=



000
FTUS43 KIND 080520
TAFLAF
TAF
KLAF 080520Z 0806/0906 27008KT P6SM SCT050 BKN090
     FM081000 25006KT P6SM SCT025 OVC040
     FM081400 28010KT 3SM -SHSN OVC020
     FM081800 30013G22KT 5SM -SHSN OVC025
      AMD LTD TO CLD VIS AND WIND TIL 081400=



000
FTUS43 KIND 080520
TAFIND
TAF
KIND 080520Z 0806/0912 26007KT P6SM SCT050 BKN100
     FM081200 26007KT P6SM SCT025 OVC040
     FM081500 28011G18KT 3SM -SHSN OVC020
     FM081900 29013G22KT 5SM -SHSN OVC025=



000
FTUS43 KIND 080228 AAA
TAFIND
TAF AMD
KIND 080228Z 0802/0906 26009KT P6SM BKN060 BKN100
     FM081200 25008KT P6SM SCT025 OVC040
     FM081500 28012G20KT 3SM -SHSN OVC020
     FM082000 28013G22KT 5SM -SHSN OVC025=



000
FTUS43 KIND 080228 AAA
TAFIND
TAF AMD
KIND 080228Z 0802/0906 26009KT P6SM BKN060 BKN100
     FM081200 25008KT P6SM SCT025 OVC040
     FM081500 28012G20KT 3SM -SHSN OVC020
     FM082000 28013G22KT 5SM -SHSN OVC025=



000
FTUS43 KIND 072335
TAFLAF
TAF
KLAF 072335Z 0800/0824 24010KT P6SM SCT040 BKN150
     FM080300 25005KT P6SM SCT040 BKN120
     FM081000 25006KT P6SM SCT025 OVC040
     FM081200 28010KT 3SM -SHSN OVC020
     FM081600 29013G22KT 5SM -SHSN OVC025
      AMD LTD TO CLD VIS AND WIND 0802/0814=



000
FTUS43 KIND 072335
TAFIND
TAF
KIND 072335Z 0800/0906 22011G18KT P6SM SCT040 BKN150
     FM080400 25006KT P6SM SCT040 BKN120
     FM081200 25008KT P6SM SCT025 OVC040
     FM081500 28012G20KT 3SM -SHSN OVC020
     FM082000 28013G22KT 5SM -SHSN OVC025=



000
FTUS43 KIND 072335
TAFIND
TAF
KIND 072335Z 0800/0906 22011G18KT P6SM SCT040 BKN150
     FM080400 25006KT P6SM SCT040 BKN120
     FM081200 25008KT P6SM SCT025 OVC040
     FM081500 28012G20KT 3SM -SHSN OVC020
     FM082000 28013G22KT 5SM -SHSN OVC025=



000
FTUS43 KIND 072335
TAFLAF
TAF
KLAF 072335Z 0800/0824 24010KT P6SM SCT040 BKN150
     FM080300 25005KT P6SM SCT040 BKN120
     FM081000 25006KT P6SM SCT025 OVC040
     FM081200 28010KT 3SM -SHSN OVC020
     FM081600 29013G22KT 5SM -SHSN OVC025
      AMD LTD TO CLD VIS AND WIND 0802/0814=



000
FTUS43 KIND 072016 AAA
TAFIND
TAF AMD
KIND 072016Z 0720/0824 22017G27KT P6SM SCT150 BKN250
     FM080000 22011KT P6SM SCT040 BKN150
     FM080400 26006KT P6SM SCT025 OVC040
     FM081400 26012KT 3SM -SN OVC015=



000
FTUS43 KIND 072016 AAA
TAFIND
TAF AMD
KIND 072016Z 0720/0824 22017G27KT P6SM SCT150 BKN250
     FM080000 22011KT P6SM SCT040 BKN150
     FM080400 26006KT P6SM SCT025 OVC040
     FM081400 26012KT 3SM -SN OVC015=



000
FTUS43 KIND 071720
TAFLAF
TAF
KLAF 071720Z 0718/0818 22015G25KT P6SM FEW150
     FM072300 22011KT P6SM SCT040 BKN150
     FM080200 26006KT P6SM SCT025 OVC040
     FM081200 27008KT 4SM -SN OVC015=



000
FTUS43 KIND 071720
TAFIND
TAF
KIND 071720Z 0718/0824 22015G25KT P6SM FEW150 SCT200
     FM072300 22011KT P6SM SCT040 BKN150
     FM080400 26006KT P6SM SCT025 OVC040
     FM081400 26012KT 3SM -SN OVC015=



000
FTUS43 KIND 071409 AAA
TAFIND
TAF AMD
KIND 071409Z 0714/0818 18007KT P6SM SCT150
     FM071500 22012G18KT P6SM BKN150
     FM071700 22015G22KT P6SM SCT050 BKN150
     FM072300 22011KT P6SM SCT040 BKN150
     FM080400 26006KT P6SM SCT025 OVC040
     FM081400 26009KT 3SM -SN OVC015=



000
FTUS43 KIND 071120
TAFIND
TAF
KIND 071120Z 0712/0818 22009KT P6SM BKN150
     FM071500 22012G18KT P6SM BKN150
     FM071700 22015G22KT P6SM SCT050 BKN150
     FM072300 22011KT P6SM SCT040 BKN150
     FM080400 26006KT P6SM SCT025 OVC040
     FM081400 26009KT 3SM -SN OVC015=



000
FTUS43 KIND 071120
TAFLAF
TAF
KLAF 071120Z 0712/0812 22006KT P6SM BKN150
     FM071500 22012G18KT P6SM BKN150
     FM071700 22015G22KT P6SM SCT050 BKN150
     FM072300 22011KT P6SM SCT040 BKN150
     FM080200 26006KT P6SM SCT025 OVC040
      AMD LTD TO CLD VIS AND WIND TIL 071400=



000
FTUS43 KIND 070819 AAA
TAFIND
TAF AMD
KIND 070819Z 0708/0812 20007KT P6SM SKC
     FM071200 21007KT P6SM SCT150 BKN250
     FM071500 22012G20KT P6SM SCT120 BKN250
     FM072300 24010KT P6SM FEW040 BKN100
     FM081000 26009KT P6SM BKN025 OVC050=



000
FTUS43 KIND 070520
TAFIND
TAF
KIND 070520Z 0706/0812 20007KT P6SM SKC
     FM071200 21007KT P6SM SCT150 BKN250
     FM071500 22012G20KT P6SM SCT120 BKN250
     FM072300 24010KT P6SM FEW040 BKN100
     FM081000 26009KT P6SM BKN025 OVC050=



000
FTUS43 KIND 070520
TAFLAF
TAF
KLAF 070520Z 0706/0806 23004KT P6SM SKC
     FM070900 23004KT P6SM SCT150 BKN250
     FM071400 24010G20KT P6SM SCT120 BKN250
     FM072100 25010G20KT P6SM FEW040 BKN120
     FM080100 27008KT P6SM SCT040 BKN100
      AMD LTD TO CLD VIS AND WIND TIL 071400=



000
FTUS43 KIND 070225 AAA
TAFIND
TAF AMD
KIND 070225Z 0702/0806 19007KT P6SM SKC
     FM071100 23006KT P6SM BKN150
     FM071500 22012G20KT P6SM BKN100
     FM072100 23013G22KT P6SM FEW040 BKN100=



000
FTUS43 KIND 070225 AAA
TAFIND
TAF AMD
KIND 070225Z 0702/0806 19007KT P6SM SKC
     FM071100 23006KT P6SM BKN150
     FM071500 22012G20KT P6SM BKN100
     FM072100 23013G22KT P6SM FEW040 BKN100=



000
FTUS43 KIND 062335
TAFLAF
TAF
KLAF 062335Z 0700/0724 23005KT P6SM SKC
     FM070900 23004KT P6SM BKN150
     FM071400 22010G20KT P6SM BKN120
     FM071900 25010G20KT P6SM FEW040 BKN120
      AMD LTD TO CLD VIS AND WIND 0702/0714=



000
FTUS43 KIND 062335
TAFIND
TAF
KIND 062335Z 0700/0806 21007KT P6SM SKC
     FM071100 23006KT P6SM BKN150
     FM071500 22012G20KT P6SM BKN100
     FM072100 23013G22KT P6SM FEW040 BKN100=



000
FTUS43 KIND 062335
TAFIND
TAF
KIND 062335Z 0700/0806 21007KT P6SM SKC
     FM071100 23006KT P6SM BKN150
     FM071500 22012G20KT P6SM BKN100
     FM072100 23013G22KT P6SM FEW040 BKN100=



000
FTUS43 KIND 062335
TAFLAF
TAF
KLAF 062335Z 0700/0724 23005KT P6SM SKC
     FM070900 23004KT P6SM BKN150
     FM071400 22010G20KT P6SM BKN120
     FM071900 25010G20KT P6SM FEW040 BKN120
      AMD LTD TO CLD VIS AND WIND 0702/0714=



000
FTUS43 KIND 062020 AAA
TAFIND
TAF AMD
KIND 062020Z 0620/0724 21008KT P6SM FEW100
     FM071200 23006KT P6SM BKN150
     FM071500 21012G20KT P6SM BKN100=



000
FTUS43 KIND 061732
TAFLAF
TAF
KLAF 061732Z 0618/0718 21007KT P6SM SKC
     FM071500 22010G20KT P6SM BKN150=



000
FTUS43 KIND 061732
TAFIND
TAF
KIND 061732Z 0618/0724 VRB06KT P6SM FEW060
     FM071200 23006KT P6SM BKN150
     FM071500 21012G20KT P6SM BKN100=



000
FTUS43 KIND 061410 AAA
TAFIND
TAF AMD
KIND 061410Z 0614/0718 23003KT 5SM BR SCT100 SCT250
     FM061500 24008KT P6SM BKN050
     FM070000 23005KT P6SM SCT050
     FM070600 23006KT P6SM BKN150
     FM071500 21011KT P6SM BKN100=



    US Dept of Commerce
    National Oceanic and Atmospheric Administration
    National Weather Service
    1325 East West Highway
    Silver Spring, MD 20910
    Page Author: NWS Internet Services Team
Disclaimer
Information Quality
Credits
Glossary
Privacy Policy
Freedom of Information Act (FOIA)
About Us
Career Opportunities